Time,TemperatureF,DewpointF,PressureIn,WindDirection,WindDirectionDegrees,WindSpeedMPH,WindSpeedGustMPH,Humidity,HourlyPrecipIn,Conditions,Clouds,dailyrainin,SoftwareType,DateUTC
2013-06-03 00:01:00,69.3,68.4,29.86,SW,225,0.0,0.0,97,0.00,,,0.36,meteohub,2013-06-03 04:01:00,
2013-06-03 00:02:00,69.3,68.4,29.87,SW,225,0.0,0.0,97,0.00,,,0.36,meteohub,2013-06-03 04:02:00,
2013-06-03 00:07:00,69.3,68.4,29.87,SW,225,0.0,0.0,97,0.00,,,0.00,meteohub,2013-06-03 04:07:00,
2013-06-03 00:12:00,69.3,68.4,29.87,SW,225,0.0,0.0,97,0.00,,,0.00,meteohub,2013-06-03 04:12:00,
2013-06-03 00:17:00,69.3,68.4,29.87,SW,225,0.0,1.0,97,0.00,,,0.00,meteohub,2013-06-03 04:17:00,
2013-06-03 00:22:00,69.3,68.4,29.87,SW,225,0.0,1.0,97,0.00,,,0.00,meteohub,2013-06-03 04:22:00,
2013-06-03 00:27:00,69.3,68.4,29.87,SW,225,0.0,1.0,97,0.00,,,0.00,meteohub,2013-06-03 04:27:00,
2013-06-03 00:32:00,69.3,68.4,29.87,SW,225,0.0,0.0,97,0.00,,,0.00,meteohub,2013-06-03 04:32:00,
2013-06-03 00:37:00,69.3,68.4,29.87,SW,225,1.0,0.0,97,0.00,,,0.00,meteohub,2013-06-03 04:37:00,
2013-06-03 00:42:00,69.3,68.4,29.87,SW,225,0.0,1.0,97,0.00,,,0.00,meteohub,2013-06-03 04:42:00,
2013-06-03 00:47:00,69.3,68.4,29.87,SW,225,0.0,1.0,97,0.00,,,0.00,meteohub,2013-06-03 04:47:00,
2013-06-03 00:53:00,69.3,68.4,29.87,SW,225,0.0,1.0,97,0.00,,,0.00,meteohub,2013-06-03 04:53:00,
2013-06-03 00:57:00,69.3,68.4,29.87,SW,225,0.0,0.0,97,0.00,,,0.00,meteohub,2013-06-03 04:57:00,
2013-06-03 01:02:00,69.1,68.2,29.86,SW,225,0.0,0.0,97,0.01,,,0.01,meteohub,2013-06-03 05:02:00,
2013-06-03 01:07:00,69.1,68.2,29.86,SW,225,0.0,0.0,97,0.01,,,0.01,meteohub,2013-06-03 05:07:00,
2013-06-03 01:12:00,69.1,68.2,29.87,SW,225,0.0,0.0,97,0.01,,,0.01,meteohub,2013-06-03 05:12:00,
2013-06-03 01:17:00,69.1,68.2,29.86,SW,225,0.0,0.0,97,0.01,,,0.01,meteohub,2013-06-03 05:17:00,
2013-06-03 01:22:00,69.1,68.2,29.86,SW,225,0.0,0.0,97,0.01,,,0.01,meteohub,2013-06-03 05:22:00,
2013-06-03 01:28:00,69.1,68.2,29.87,SW,225,0.0,0.0,97,0.01,,,0.01,meteohub,2013-06-03 05:28:00,
2013-06-03 01:33:00,69.1,68.2,29.87,SW,225,0.0,0.0,97,0.01,,,0.01,meteohub,2013-06-03 05:33:00,
2013-06-03 01:38:00,69.1,68.2,29.87,SW,225,0.0,0.0,97,0.01,,,0.01,meteohub,2013-06-03 05:38:00,
2013-06-03 01:43:00,69.1,68.2,29.87,SW,225,0.0,0.0,97,0.01,,,0.01,meteohub,2013-06-03 05:43:00,
2013-06-03 01:48:00,69.1,68.2,29.87,SW,225,0.0,0.0,97,0.01,,,0.01,meteohub,2013-06-03 05:48:00,
2013-06-03 01:53:00,69.1,68.2,29.87,SW,225,0.0,0.0,97,0.01,,,0.01,meteohub,2013-06-03 05:53:00,
2013-06-03 01:58:00,69.1,68.2,29.87,SW,225,0.0,0.0,97,0.00,,,0.01,meteohub,2013-06-03 05:58:00,
2013-06-03 02:03:00,69.1,68.2,29.86,SW,232,0.0,0.0,97,0.00,,,0.01,meteohub,2013-06-03 06:03:00,
2013-06-03 02:08:00,69.1,68.2,29.86,SW,231,0.0,2.0,97,0.01,,,0.02,meteohub,2013-06-03 06:08:00,
2013-06-03 02:13:00,68.9,68.0,29.86,SW,231,0.0,2.0,97,0.01,,,0.02,meteohub,2013-06-03 06:13:00,
2013-06-03 02:18:00,68.9,68.0,29.86,SW,231,0.0,2.0,97,0.01,,,0.02,meteohub,2013-06-03 06:18:00,
2013-06-03 02:23:00,68.7,67.8,29.86,SW,231,0.0,1.0,97,0.01,,,0.02,meteohub,2013-06-03 06:23:00,
2013-06-03 02:28:00,68.7,67.8,29.86,SW,231,0.0,0.0,97,0.01,,,0.02,meteohub,2013-06-03 06:28:00,
2013-06-03 02:33:00,68.7,67.8,29.86,SW,231,0.0,0.0,97,0.01,,,0.02,meteohub,2013-06-03 06:33:00,
2013-06-03 02:38:00,68.7,67.8,29.86,SW,231,0.0,0.0,97,0.01,,,0.02,meteohub,2013-06-03 06:38:00,
2013-06-03 02:43:00,68.7,67.8,29.85,SW,231,0.0,0.0,97,0.01,,,0.02,meteohub,2013-06-03 06:43:00,
2013-06-03 02:48:00,68.7,67.8,29.85,SW,231,0.0,0.0,97,0.01,,,0.02,meteohub,2013-06-03 06:48:00,
2013-06-03 02:53:00,68.7,67.8,29.85,SW,231,0.0,0.0,97,0.01,,,0.02,meteohub,2013-06-03 06:53:00,
2013-06-03 02:58:00,68.7,67.8,29.85,SW,231,0.0,0.0,97,0.01,,,0.02,meteohub,2013-06-03 06:58:00,
2013-06-03 03:03:00,68.5,67.6,29.85,SW,231,0.0,1.0,97,0.01,,,0.02,meteohub,2013-06-03 07:03:00,
2013-06-03 03:08:00,68.5,67.6,29.85,SW,231,0.0,1.0,97,0.00,,,0.02,meteohub,2013-06-03 07:08:00,
2013-06-03 03:13:00,68.5,67.6,29.85,SW,231,0.0,0.0,97,0.00,,,0.02,meteohub,2013-06-03 07:13:00,
2013-06-03 03:18:00,68.5,67.6,29.85,SW,231,0.0,0.0,97,0.00,,,0.02,meteohub,2013-06-03 07:18:00,
2013-06-03 03:23:00,68.5,67.6,29.86,SW,231,0.0,0.0,97,0.00,,,0.02,meteohub,2013-06-03 07:23:00,
2013-06-03 03:28:00,68.5,67.6,29.86,SW,231,0.0,0.0,97,0.00,,,0.02,meteohub,2013-06-03 07:28:00,
2013-06-03 03:33:00,68.5,67.6,29.86,SW,231,0.0,0.0,97,0.00,,,0.02,meteohub,2013-06-03 07:33:00,
2013-06-03 03:38:00,68.5,67.6,29.86,SW,231,0.0,0.0,97,0.00,,,0.02,meteohub,2013-06-03 07:38:00,
2013-06-03 03:43:00,68.7,67.8,29.86,SW,231,0.0,1.0,97,0.00,,,0.02,meteohub,2013-06-03 07:43:00,
2013-06-03 03:48:00,68.7,67.8,29.86,SW,231,0.0,1.0,97,0.00,,,0.02,meteohub,2013-06-03 07:48:00,
2013-06-03 03:53:00,68.7,67.8,29.86,SE,129,0.0,1.0,97,0.00,,,0.02,meteohub,2013-06-03 07:53:00,
2013-06-03 03:58:00,68.7,67.8,29.86,ESE,115,0.0,2.0,97,0.00,,,0.02,meteohub,2013-06-03 07:58:00,
2013-06-03 04:03:00,68.7,67.8,29.86,SSE,154,0.0,2.0,97,0.00,,,0.02,meteohub,2013-06-03 08:03:00,
2013-06-03 04:08:00,68.7,67.8,29.86,SSE,154,0.0,2.0,97,0.00,,,0.02,meteohub,2013-06-03 08:08:00,
2013-06-03 04:13:00,68.7,67.8,29.86,SSE,154,0.0,2.0,97,0.00,,,0.02,meteohub,2013-06-03 08:13:00,
2013-06-03 04:18:00,68.7,67.8,29.86,SSE,154,0.0,1.0,97,0.00,,,0.02,meteohub,2013-06-03 08:18:00,
2013-06-03 04:23:00,68.7,67.8,29.86,SSE,154,0.0,1.0,97,0.00,,,0.02,meteohub,2013-06-03 08:23:00,
2013-06-03 04:28:00,68.7,67.8,29.86,SSW,200,0.0,1.0,97,0.00,,,0.02,meteohub,2013-06-03 08:28:00,
2013-06-03 04:33:00,68.7,68.2,29.86,WNW,298,0.0,4.0,98,0.00,,,0.02,meteohub,2013-06-03 08:33:00,
2013-06-03 04:38:00,68.7,68.2,29.87,SSW,212,0.0,4.0,98,0.00,,,0.02,meteohub,2013-06-03 08:38:00,
2013-06-03 04:43:00,68.5,67.6,29.86,SSW,198,0.0,4.0,97,0.00,,,0.02,meteohub,2013-06-03 08:43:00,
2013-06-03 04:48:00,68.5,67.6,29.86,SSW,197,0.0,3.0,97,0.01,,,0.03,meteohub,2013-06-03 08:48:00,
2013-06-03 04:53:00,68.5,67.6,29.87,West,268,1.0,3.0,97,0.01,,,0.03,meteohub,2013-06-03 08:53:00,
2013-06-03 04:58:00,68.5,68.0,29.87,East,81,0.0,3.0,98,0.01,,,0.03,meteohub,2013-06-03 08:58:00,
2013-06-03 05:03:00,68.5,68.0,29.87,East,81,0.0,3.0,98,0.01,,,0.03,meteohub,2013-06-03 09:03:00,
2013-06-03 05:08:00,68.4,67.8,29.86,WNW,298,3.0,3.0,98,0.02,,,0.04,meteohub,2013-06-03 09:08:00,
2013-06-03 05:13:00,68.2,67.3,29.86,WNW,292,0.0,5.0,97,0.02,,,0.04,meteohub,2013-06-03 09:13:00,
2013-06-03 05:18:00,68.0,67.1,29.87,NW,319,0.0,5.0,97,0.02,,,0.04,meteohub,2013-06-03 09:18:00,
2013-06-03 05:23:00,67.6,66.7,29.87,NNW,327,0.0,5.0,97,0.02,,,0.04,meteohub,2013-06-03 09:23:00,
2013-06-03 05:28:00,67.6,66.7,29.87,NW,318,0.0,4.0,97,0.02,,,0.04,meteohub,2013-06-03 09:28:00,
2013-06-03 05:33:00,67.6,66.7,29.88,NW,318,0.0,4.0,97,0.02,,,0.04,meteohub,2013-06-03 09:33:00,
2013-06-03 05:38:00,67.5,66.6,29.87,NW,318,0.0,4.0,97,0.03,,,0.04,meteohub,2013-06-03 09:38:00,
2013-06-03 05:43:00,67.5,66.6,29.87,NW,318,0.0,1.0,97,0.03,,,0.05,meteohub,2013-06-03 09:43:00,
2013-06-03 05:48:00,67.5,66.6,29.87,NW,318,0.0,1.0,97,0.02,,,0.05,meteohub,2013-06-03 09:48:00,
2013-06-03 05:53:00,67.3,66.4,29.88,NW,318,0.0,1.0,97,0.02,,,0.05,meteohub,2013-06-03 09:53:00,
2013-06-03 05:58:00,67.1,66.2,29.88,NW,318,0.0,2.0,97,0.02,,,0.05,meteohub,2013-06-03 09:58:00,
2013-06-03 06:03:00,66.9,66.0,29.88,West,279,0.0,2.0,97,0.01,,,0.05,meteohub,2013-06-03 10:03:00,
2013-06-03 06:09:00,66.9,66.0,29.88,West,279,0.0,2.0,97,0.01,,,0.05,meteohub,2013-06-03 10:09:00,
2013-06-03 06:14:00,66.7,65.8,29.88,West,279,0.0,1.0,97,0.01,,,0.05,meteohub,2013-06-03 10:14:00,
2013-06-03 06:19:00,66.7,65.8,29.89,West,264,0.0,1.0,97,0.01,,,0.05,meteohub,2013-06-03 10:19:00,
2013-06-03 06:24:00,66.7,65.8,29.90,SW,221,0.0,1.0,97,0.01,,,0.05,meteohub,2013-06-03 10:24:00,
2013-06-03 06:29:00,66.6,65.7,29.90,WSW,248,1.0,2.0,97,0.01,,,0.05,meteohub,2013-06-03 10:29:00,
2013-06-03 06:34:00,66.2,65.3,29.88,NW,305,0.0,4.0,97,0.01,,,0.05,meteohub,2013-06-03 10:34:00,
2013-06-03 06:39:00,66.0,65.1,29.87,WNW,296,0.0,4.0,97,0.01,,,0.06,meteohub,2013-06-03 10:39:00,
2013-06-03 06:44:00,65.8,64.9,29.87,WSW,252,2.0,4.0,97,0.01,,,0.06,meteohub,2013-06-03 10:44:00,
2013-06-03 06:49:00,65.8,64.9,29.87,SSW,198,0.0,3.0,97,0.01,,,0.06,meteohub,2013-06-03 10:49:00,
2013-06-03 06:54:00,65.8,64.9,29.87,SSW,198,0.0,2.0,97,0.01,,,0.06,meteohub,2013-06-03 10:54:00,
2013-06-03 06:59:00,65.8,64.9,29.87,SSW,198,0.0,2.0,97,0.01,,,0.06,meteohub,2013-06-03 10:59:00,
2013-06-03 07:04:00,65.8,65.3,29.87,SSW,198,0.0,2.0,98,0.01,,,0.06,meteohub,2013-06-03 11:04:00,
2013-06-03 07:09:00,66.0,65.5,29.87,SSW,198,0.0,1.0,98,0.01,,,0.06,meteohub,2013-06-03 11:09:00,
2013-06-03 07:14:00,66.0,65.5,29.87,SSW,198,0.0,1.0,98,0.01,,,0.06,meteohub,2013-06-03 11:14:00,
2013-06-03 07:19:00,66.0,65.5,29.87,SSW,198,0.0,1.0,98,0.01,,,0.06,meteohub,2013-06-03 11:19:00,
2013-06-03 07:24:00,66.0,65.5,29.87,SSW,198,0.0,0.0,98,0.01,,,0.06,meteohub,2013-06-03 11:24:00,
2013-06-03 07:29:00,66.0,65.5,29.88,SSW,198,0.0,1.0,98,0.01,,,0.06,meteohub,2013-06-03 11:29:00,
2013-06-03 07:34:00,66.0,65.5,29.87,SSW,198,0.0,1.0,98,0.00,,,0.06,meteohub,2013-06-03 11:34:00,
2013-06-03 07:39:00,65.8,65.3,29.86,SSW,198,0.0,1.0,98,0.00,,,0.06,meteohub,2013-06-03 11:39:00,
2013-06-03 07:44:00,66.0,65.5,29.86,SSW,204,1.0,1.0,98,0.00,,,0.06,meteohub,2013-06-03 11:44:00,
2013-06-03 07:49:00,66.0,65.5,29.87,SSW,204,0.0,2.0,98,0.00,,,0.06,meteohub,2013-06-03 11:49:00,
2013-06-03 07:54:00,66.0,65.5,29.87,SSW,204,0.0,2.0,98,0.00,,,0.06,meteohub,2013-06-03 11:54:00,
2013-06-03 07:59:00,65.8,65.3,29.87,SSW,204,0.0,1.0,98,0.00,,,0.06,meteohub,2013-06-03 11:59:00,
2013-06-03 08:04:00,66.0,65.5,29.87,SSW,204,0.0,1.0,98,0.00,,,0.06,meteohub,2013-06-03 12:04:00,
2013-06-03 08:09:00,66.0,65.5,29.87,SSW,204,0.0,1.0,98,0.00,,,0.06,meteohub,2013-06-03 12:09:00,
2013-06-03 08:14:00,66.0,65.5,29.87,SSW,204,0.0,1.0,98,0.00,,,0.06,meteohub,2013-06-03 12:14:00,
2013-06-03 08:19:00,66.0,65.5,29.87,SSW,204,0.0,1.0,98,0.00,,,0.06,meteohub,2013-06-03 12:19:00,
2013-06-03 08:24:00,66.0,65.5,29.87,SSW,204,0.0,1.0,98,0.00,,,0.06,meteohub,2013-06-03 12:24:00,
2013-06-03 08:29:00,66.2,65.7,29.87,SSW,204,0.0,0.0,98,0.00,,,0.06,meteohub,2013-06-03 12:29:00,
2013-06-03 08:34:00,66.4,65.8,29.87,SSW,203,0.0,0.0,98,0.00,,,0.06,meteohub,2013-06-03 12:34:00,
2013-06-03 08:39:00,66.6,66.0,29.87,SSW,203,0.0,0.0,98,0.00,,,0.06,meteohub,2013-06-03 12:39:00,
2013-06-03 08:44:00,66.7,66.2,29.88,SSW,203,0.0,2.0,98,0.00,,,0.06,meteohub,2013-06-03 12:44:00,
2013-06-03 08:49:00,66.7,66.2,29.88,SSW,203,1.0,2.0,98,0.00,,,0.06,meteohub,2013-06-03 12:49:00,
2013-06-03 08:54:00,67.1,66.6,29.88,SSW,203,0.0,1.0,98,0.00,,,0.06,meteohub,2013-06-03 12:54:00,
2013-06-03 08:59:00,67.3,66.7,29.88,SSW,208,3.0,3.0,98,0.01,,,0.07,meteohub,2013-06-03 12:59:00,
2013-06-03 09:04:00,67.3,66.7,29.88,SSW,206,0.0,2.0,98,0.01,,,0.07,meteohub,2013-06-03 13:04:00,
2013-06-03 09:09:00,67.3,66.7,29.88,SSW,207,0.0,3.0,98,0.01,,,0.07,meteohub,2013-06-03 13:09:00,
2013-06-03 09:14:00,67.3,66.7,29.88,SSW,207,0.0,3.0,98,0.01,,,0.07,meteohub,2013-06-03 13:14:00,
2013-06-03 09:19:00,67.5,66.9,29.88,SSW,207,0.0,1.0,98,0.01,,,0.07,meteohub,2013-06-03 13:19:00,
2013-06-03 09:24:00,67.6,67.1,29.88,SSW,198,1.0,1.0,98,0.01,,,0.07,meteohub,2013-06-03 13:24:00,
2013-06-03 09:29:00,67.8,67.3,29.88,SSE,166,0.0,1.0,98,0.01,,,0.07,meteohub,2013-06-03 13:29:00,
2013-06-03 09:34:00,68.4,67.8,29.88,WNW,290,0.0,3.0,98,0.01,,,0.07,meteohub,2013-06-03 13:34:00,
2013-06-03 09:40:00,68.2,67.6,29.88,WNW,296,1.0,3.0,98,0.01,,,0.07,meteohub,2013-06-03 13:40:00,
2013-06-03 09:45:00,67.8,67.3,29.88,WNW,297,0.0,3.0,98,0.01,,,0.07,meteohub,2013-06-03 13:45:00,
2013-06-03 09:50:00,68.4,67.8,29.88,WNW,284,0.0,3.0,98,0.01,,,0.07,meteohub,2013-06-03 13:50:00,
2013-06-03 09:55:00,68.4,67.8,29.88,NW,305,0.0,3.0,98,0.00,,,0.07,meteohub,2013-06-03 13:55:00,
2013-06-03 10:00:00,68.5,68.0,29.88,North,350,0.0,3.0,98,0.00,,,0.07,meteohub,2013-06-03 14:00:00,
2013-06-03 10:05:00,68.5,68.0,29.88,NW,312,0.0,3.0,98,0.00,,,0.07,meteohub,2013-06-03 14:05:00,
2013-06-03 10:10:00,68.5,68.0,29.88,NW,312,2.0,3.0,98,0.00,,,0.07,meteohub,2013-06-03 14:10:00,
2013-06-03 10:15:00,68.7,68.2,29.88,NW,324,1.0,3.0,98,0.00,,,0.07,meteohub,2013-06-03 14:15:00,
2013-06-03 10:20:00,69.1,68.5,29.88,NW,324,0.0,3.0,98,0.00,,,0.07,meteohub,2013-06-03 14:20:00,
2013-06-03 10:25:00,69.3,68.7,29.88,NNW,338,2.0,3.0,98,0.00,,,0.07,meteohub,2013-06-03 14:25:00,
2013-06-03 10:30:00,69.1,68.5,29.88,WNW,289,0.0,3.0,98,0.00,,,0.07,meteohub,2013-06-03 14:30:00,
2013-06-03 10:35:00,69.3,68.7,29.88,WNW,296,0.0,4.0,98,0.00,,,0.07,meteohub,2013-06-03 14:35:00,
2013-06-03 10:40:00,69.3,68.7,29.88,NNW,345,0.0,4.0,98,0.00,,,0.07,meteohub,2013-06-03 14:40:00,
2013-06-03 10:45:00,69.4,68.5,29.88,North,350,3.0,4.0,97,0.00,,,0.07,meteohub,2013-06-03 14:45:00,
2013-06-03 10:50:00,69.8,68.9,29.88,NW,323,1.0,3.0,97,0.00,,,0.07,meteohub,2013-06-03 14:50:00,
2013-06-03 10:55:00,70.2,69.3,29.88,West,265,0.0,3.0,97,0.00,,,0.07,meteohub,2013-06-03 14:55:00,
2013-06-03 11:00:00,70.3,69.1,29.88,SW,227,1.0,3.0,96,0.00,,,0.07,meteohub,2013-06-03 15:00:00,
2013-06-03 11:05:00,70.5,69.1,29.87,West,263,0.0,3.0,95,0.00,,,0.07,meteohub,2013-06-03 15:05:00,
2013-06-03 11:10:00,70.9,69.4,29.87,WNW,290,2.0,3.0,95,0.00,,,0.07,meteohub,2013-06-03 15:10:00,
2013-06-03 11:15:00,71.1,68.5,29.87,NNW,344,0.0,4.0,92,0.01,,,0.08,meteohub,2013-06-03 15:15:00,
2013-06-03 11:20:00,71.6,70.2,29.86,NW,321,0.0,4.0,95,0.01,,,0.08,meteohub,2013-06-03 15:20:00,
2013-06-03 11:25:00,72.3,69.6,29.87,WNW,290,2.0,4.0,91,0.01,,,0.08,meteohub,2013-06-03 15:25:00,
2013-06-03 11:30:00,72.7,69.3,29.87,NW,320,0.0,4.0,89,0.01,,,0.08,meteohub,2013-06-03 15:30:00,
2013-06-03 11:35:00,72.9,69.8,29.87,NW,321,0.0,4.0,90,0.01,,,0.08,meteohub,2013-06-03 15:35:00,
2013-06-03 11:40:00,73.2,69.8,29.87,NW,321,0.0,4.0,89,0.01,,,0.08,meteohub,2013-06-03 15:40:00,
2013-06-03 11:45:00,73.6,69.4,29.87,NW,324,0.0,4.0,87,0.01,,,0.08,meteohub,2013-06-03 15:45:00,
2013-06-03 11:50:00,73.8,70.0,29.87,WNW,292,1.0,4.0,88,0.01,,,0.08,meteohub,2013-06-03 15:50:00,
2013-06-03 11:55:00,73.9,70.2,29.87,West,261,0.0,4.0,88,0.01,,,0.08,meteohub,2013-06-03 15:55:00,
2013-06-03 12:00:00,74.5,70.7,29.87,NW,304,3.0,4.0,88,0.01,,,0.08,meteohub,2013-06-03 16:00:00,
2013-06-03 12:05:00,74.5,68.9,29.87,NW,318,0.0,4.0,83,0.01,,,0.08,meteohub,2013-06-03 16:05:00,
2013-06-03 12:10:00,74.7,70.5,29.87,NNW,333,1.0,5.0,87,0.01,,,0.08,meteohub,2013-06-03 16:10:00,
2013-06-03 12:15:00,75.0,70.5,29.86,West,281,1.0,5.0,86,0.00,,,0.08,meteohub,2013-06-03 16:15:00,
2013-06-03 12:20:00,75.4,70.5,29.86,West,277,0.0,5.0,85,0.00,,,0.08,meteohub,2013-06-03 16:20:00,
2013-06-03 12:25:00,75.6,70.0,29.86,WNW,294,1.0,4.0,83,0.00,,,0.08,meteohub,2013-06-03 16:25:00,
2013-06-03 12:30:00,75.6,69.3,29.86,NNW,341,1.0,4.0,81,0.00,,,0.08,meteohub,2013-06-03 16:30:00,
2013-06-03 12:35:00,75.6,70.0,29.86,NNW,341,0.0,4.0,83,0.00,,,0.08,meteohub,2013-06-03 16:35:00,
2013-06-03 12:40:00,75.9,70.0,29.86,NW,315,1.0,4.0,82,0.00,,,0.08,meteohub,2013-06-03 16:40:00,
2013-06-03 12:45:00,76.3,68.9,29.86,West,259,0.0,3.0,78,0.00,,,0.08,meteohub,2013-06-03 16:45:00,
2013-06-03 12:50:00,76.3,68.9,29.86,WNW,290,0.0,3.0,78,0.00,,,0.08,meteohub,2013-06-03 16:50:00,
2013-06-03 12:55:00,76.5,69.8,29.86,WNW,300,0.0,3.0,80,0.00,,,0.08,meteohub,2013-06-03 16:55:00,
2013-06-03 13:00:00,76.8,69.8,29.86,WSW,250,1.0,5.0,79,0.00,,,0.08,meteohub,2013-06-03 17:00:00,
2013-06-03 13:05:00,77.2,70.5,29.86,NNW,329,0.0,5.0,80,0.00,,,0.08,meteohub,2013-06-03 17:05:00,
2013-06-03 13:10:00,77.2,69.8,29.86,NW,310,0.0,5.0,78,0.00,,,0.08,meteohub,2013-06-03 17:10:00,
2013-06-03 13:15:00,77.4,69.3,29.86,NW,307,1.0,5.0,76,0.00,,,0.08,meteohub,2013-06-03 17:15:00,
2013-06-03 13:20:00,77.4,70.0,29.85,WNW,288,1.0,5.0,78,0.00,,,0.08,meteohub,2013-06-03 17:20:00,
2013-06-03 13:25:00,77.4,68.9,29.85,West,273,2.0,6.0,75,0.00,,,0.08,meteohub,2013-06-03 17:25:00,
2013-06-03 13:30:00,77.5,68.9,29.85,NW,304,0.0,6.0,75,0.00,,,0.08,meteohub,2013-06-03 17:30:00,
2013-06-03 13:35:00,77.7,69.6,29.85,NW,313,2.0,6.0,76,0.00,,,0.08,meteohub,2013-06-03 17:35:00,
2013-06-03 13:40:00,77.5,68.9,29.85,WNW,303,4.0,4.0,75,0.00,,,0.08,meteohub,2013-06-03 17:40:00,
2013-06-03 13:45:00,77.5,70.5,29.85,WNW,286,0.0,4.0,79,0.00,,,0.08,meteohub,2013-06-03 17:45:00,
2013-06-03 13:51:00,78.1,71.1,29.84,SSE,161,1.0,4.0,79,0.00,,,0.08,meteohub,2013-06-03 17:51:00,
2013-06-03 13:55:00,78.4,68.7,29.84,West,275,0.0,4.0,72,0.00,,,0.08,meteohub,2013-06-03 17:55:00,
2013-06-03 14:01:00,78.4,69.4,29.84,West,272,0.0,4.0,74,0.00,,,0.08,meteohub,2013-06-03 18:01:00,
2013-06-03 14:06:00,78.8,68.5,29.84,WNW,291,4.0,5.0,71,0.00,,,0.08,meteohub,2013-06-03 18:06:00,
2013-06-03 14:11:00,78.6,68.9,29.84,NNW,344,2.0,5.0,72,0.00,,,0.08,meteohub,2013-06-03 18:11:00,
2013-06-03 14:16:00,78.4,69.1,29.84,WNW,296,2.0,5.0,73,0.00,,,0.08,meteohub,2013-06-03 18:16:00,
2013-06-03 14:21:00,78.6,69.3,29.84,NNW,339,1.0,4.0,73,0.00,,,0.08,meteohub,2013-06-03 18:21:00,
2013-06-03 14:26:00,79.2,69.3,29.84,North,11,1.0,4.0,72,0.00,,,0.08,meteohub,2013-06-03 18:26:00,
2013-06-03 14:31:00,79.7,69.8,29.83,NNW,347,0.0,6.0,72,0.00,,,0.08,meteohub,2013-06-03 18:31:00,
2013-06-03 14:36:00,80.2,70.0,29.83,SW,218,1.0,6.0,71,0.00,,,0.08,meteohub,2013-06-03 18:36:00,
2013-06-03 14:41:00,80.6,69.1,29.83,NNW,331,3.0,4.0,68,0.00,,,0.08,meteohub,2013-06-03 18:41:00,
2013-06-03 14:46:00,80.4,70.5,29.83,WNW,287,0.0,5.0,72,0.00,,,0.08,meteohub,2013-06-03 18:46:00,
2013-06-03 14:51:00,80.4,69.8,29.83,NW,304,1.0,5.0,70,0.00,,,0.08,meteohub,2013-06-03 18:51:00,
2013-06-03 14:56:00,80.2,69.1,29.83,NW,304,1.0,5.0,69,0.00,,,0.08,meteohub,2013-06-03 18:56:00,
2013-06-03 15:01:00,80.1,67.6,29.84,NNW,331,3.0,4.0,66,0.00,,,0.08,meteohub,2013-06-03 19:01:00,
2013-06-03 15:07:00,79.3,69.4,29.84,NNW,330,1.0,6.0,72,0.00,,,0.08,meteohub,2013-06-03 19:07:00,
2013-06-03 15:12:00,78.6,68.0,29.84,WNW,300,0.0,6.0,70,0.00,,,0.08,meteohub,2013-06-03 19:12:00,
2013-06-03 15:17:00,78.4,68.7,29.84,West,272,0.0,6.0,72,0.00,,,0.08,meteohub,2013-06-03 19:17:00,
2013-06-03 15:22:00,78.1,68.7,29.85,North,11,1.0,3.0,73,0.00,,,0.08,meteohub,2013-06-03 19:22:00,
2013-06-03 15:27:00,77.2,66.6,29.85,NNE,22,3.0,10.0,70,0.00,,,0.08,meteohub,2013-06-03 19:27:00,
2013-06-03 15:32:00,75.9,66.6,29.85,NNW,337,0.0,10.0,73,0.00,,,0.08,meteohub,2013-06-03 19:32:00,
2013-06-03 15:37:00,75.4,67.6,29.86,NNW,336,1.0,10.0,77,0.00,,,0.08,meteohub,2013-06-03 19:37:00,
2013-06-03 15:42:00,74.3,66.9,29.86,West,275,0.0,5.0,78,0.00,,,0.08,meteohub,2013-06-03 19:42:00,
2013-06-03 15:47:00,73.6,67.1,29.86,NNW,342,1.0,3.0,80,0.01,,,0.09,meteohub,2013-06-03 19:47:00,
2013-06-03 15:52:00,73.2,67.1,29.86,NNW,342,0.0,3.0,81,0.01,,,0.09,meteohub,2013-06-03 19:52:00,
2013-06-03 15:57:00,73.2,67.5,29.86,NNW,342,0.0,2.0,82,0.01,,,0.09,meteohub,2013-06-03 19:57:00,
2013-06-03 16:02:00,73.0,67.6,29.85,NNW,342,0.0,1.0,83,0.01,,,0.09,meteohub,2013-06-03 20:02:00,
2013-06-03 16:07:00,73.0,67.6,29.85,NNW,342,0.0,1.0,83,0.01,,,0.09,meteohub,2013-06-03 20:07:00,
2013-06-03 16:12:00,73.6,67.5,29.85,WSW,258,0.0,3.0,81,0.01,,,0.09,meteohub,2013-06-03 20:12:00,
2013-06-03 16:17:00,73.9,68.2,29.84,WSW,258,0.0,3.0,82,0.01,,,0.09,meteohub,2013-06-03 20:17:00,
2013-06-03 16:22:00,74.5,68.9,29.84,WSW,246,0.0,3.0,83,0.01,,,0.09,meteohub,2013-06-03 20:22:00,
2013-06-03 16:27:00,74.8,67.1,29.84,NNW,329,0.0,2.0,77,0.01,,,0.09,meteohub,2013-06-03 20:27:00,
2013-06-03 16:33:00,75.4,68.0,29.84,WSW,246,0.0,4.0,78,0.01,,,0.09,meteohub,2013-06-03 20:33:00,
2013-06-03 16:38:00,76.1,68.0,29.84,NW,313,0.0,4.0,76,0.01,,,0.09,meteohub,2013-06-03 20:38:00,
2013-06-03 16:43:00,76.8,69.1,29.84,NE,41,2.0,4.0,77,0.01,,,0.09,meteohub,2013-06-03 20:43:00,
2013-06-03 16:48:00,77.4,68.4,29.83,NNW,333,0.0,3.0,74,0.00,,,0.09,meteohub,2013-06-03 20:48:00,
2013-06-03 16:53:00,78.1,70.3,29.83,ENE,70,1.0,5.0,77,0.00,,,0.09,meteohub,2013-06-03 20:53:00,
2013-06-03 16:58:00,78.4,69.8,29.83,SSE,156,1.0,5.0,75,0.00,,,0.09,meteohub,2013-06-03 20:58:00,
2013-06-03 17:03:00,78.4,69.8,29.83,North,9,1.0,5.0,75,0.00,,,0.09,meteohub,2013-06-03 21:03:00,
2013-06-03 17:08:00,78.4,68.2,29.83,NE,36,0.0,4.0,71,0.00,,,0.09,meteohub,2013-06-03 21:08:00,
2013-06-03 17:13:00,78.6,66.7,29.83,ENE,65,1.0,6.0,67,0.00,,,0.09,meteohub,2013-06-03 21:13:00,
2013-06-03 17:18:00,78.6,67.1,29.83,East,88,1.0,6.0,68,0.00,,,0.09,meteohub,2013-06-03 21:18:00,
2013-06-03 17:23:00,79.0,66.6,29.84,ENE,67,0.0,6.0,66,0.00,,,0.09,meteohub,2013-06-03 21:23:00,
2013-06-03 17:28:00,79.2,64.6,29.84,NW,325,5.0,5.0,61,0.00,,,0.09,meteohub,2013-06-03 21:28:00,
2013-06-03 17:33:00,79.2,64.9,29.84,NNE,29,2.0,6.0,62,0.00,,,0.09,meteohub,2013-06-03 21:33:00,
2013-06-03 17:38:00,79.2,66.4,29.84,ENE,67,1.0,6.0,65,0.00,,,0.09,meteohub,2013-06-03 21:38:00,
2013-06-03 17:43:00,79.3,64.8,29.85,WSW,246,3.0,6.0,61,0.00,,,0.09,meteohub,2013-06-03 21:43:00,
2013-06-03 17:48:00,79.3,65.7,29.85,NE,49,0.0,5.0,63,0.00,,,0.09,meteohub,2013-06-03 21:48:00,
2013-06-03 17:53:00,79.2,67.6,29.85,NE,49,0.0,5.0,68,0.00,,,0.09,meteohub,2013-06-03 21:53:00,
2013-06-03 17:58:00,79.0,65.8,29.85,NNE,33,1.0,4.0,64,0.00,,,0.09,meteohub,2013-06-03 21:58:00,
2013-06-03 18:03:00,78.6,64.9,29.85,NE,38,1.0,4.0,63,0.00,,,0.09,meteohub,2013-06-03 22:03:00,
2013-06-03 18:08:00,78.4,64.8,29.85,NNW,334,0.0,3.0,63,0.00,,,0.09,meteohub,2013-06-03 22:08:00,
2013-06-03 18:13:00,78.4,66.2,29.85,NNE,15,2.0,4.0,66,0.00,,,0.09,meteohub,2013-06-03 22:13:00,
2013-06-03 18:18:00,78.4,64.8,29.85,NNW,329,0.0,4.0,63,0.00,,,0.09,meteohub,2013-06-03 22:18:00,
2013-06-03 18:23:00,78.3,65.1,29.85,NNW,330,0.0,4.0,64,0.00,,,0.09,meteohub,2013-06-03 22:23:00,
2013-06-03 18:29:00,78.3,64.2,29.86,NNW,331,0.0,4.0,62,0.00,,,0.09,meteohub,2013-06-03 22:29:00,
2013-06-03 18:34:00,78.3,64.2,29.86,ENE,57,2.0,4.0,62,0.00,,,0.09,meteohub,2013-06-03 22:34:00,
2013-06-03 18:38:00,78.1,65.3,29.86,ENE,74,1.0,3.0,65,0.00,,,0.09,meteohub,2013-06-03 22:38:00,
2013-06-03 18:44:00,78.1,65.8,29.86,SW,219,1.0,4.0,66,0.00,,,0.09,meteohub,2013-06-03 22:44:00,
2013-06-03 18:49:00,77.7,64.6,29.86,SSE,155,1.0,4.0,64,0.00,,,0.09,meteohub,2013-06-03 22:49:00,
2013-06-03 18:54:00,77.5,63.9,29.86,NE,41,0.0,4.0,63,0.00,,,0.09,meteohub,2013-06-03 22:54:00,
2013-06-03 18:59:00,77.4,63.9,29.86,NNE,32,0.0,4.0,63,0.00,,,0.09,meteohub,2013-06-03 22:59:00,
2013-06-03 19:04:00,77.2,64.0,29.86,NNE,32,0.0,4.0,64,0.00,,,0.09,meteohub,2013-06-03 23:04:00,
2013-06-03 19:09:00,76.8,64.6,29.87,NNE,32,0.0,4.0,66,0.00,,,0.09,meteohub,2013-06-03 23:09:00,
2013-06-03 19:14:00,76.6,64.0,29.87,NNE,33,0.0,4.0,65,0.00,,,0.09,meteohub,2013-06-03 23:14:00,
2013-06-03 19:19:00,76.5,64.2,29.87,NNE,33,0.0,2.0,66,0.00,,,0.09,meteohub,2013-06-03 23:19:00,
2013-06-03 19:24:00,76.3,64.0,29.87,NNE,32,0.0,2.0,66,0.00,,,0.09,meteohub,2013-06-03 23:24:00,
2013-06-03 19:29:00,75.9,64.2,29.87,NNE,32,0.0,2.0,67,0.00,,,0.09,meteohub,2013-06-03 23:29:00,
2013-06-03 19:34:00,75.7,64.0,29.87,NNE,32,0.0,1.0,67,0.00,,,0.09,meteohub,2013-06-03 23:34:00,
2013-06-03 19:39:00,75.6,63.3,29.87,WSW,240,0.0,1.0,66,0.00,,,0.09,meteohub,2013-06-03 23:39:00,
2013-06-03 19:44:00,75.2,63.9,29.88,WSW,240,0.0,1.0,68,0.00,,,0.09,meteohub,2013-06-03 23:44:00,
2013-06-03 19:49:00,75.0,63.3,29.87,West,261,0.0,3.0,67,0.00,,,0.09,meteohub,2013-06-03 23:49:00,
2013-06-03 19:54:00,74.8,63.1,29.88,West,261,0.0,3.0,67,0.00,,,0.09,meteohub,2013-06-03 23:54:00,
2013-06-03 19:59:00,74.5,63.7,29.88,West,261,0.0,1.0,69,0.00,,,0.09,meteohub,2013-06-03 23:59:00,
2013-06-03 20:04:00,74.3,63.9,29.88,West,261,0.0,1.0,70,0.00,,,0.09,meteohub,2013-06-04 00:04:00,
2013-06-03 20:09:00,74.1,64.0,29.88,West,261,0.0,1.0,71,0.00,,,0.09,meteohub,2013-06-04 00:09:00,
2013-06-03 20:14:00,73.9,63.9,29.88,West,261,0.0,1.0,71,0.00,,,0.09,meteohub,2013-06-04 00:14:00,
2013-06-03 20:19:00,73.8,63.3,29.88,West,261,0.0,0.0,70,0.00,,,0.09,meteohub,2013-06-04 00:19:00,
2013-06-03 20:24:00,73.6,62.8,29.88,West,261,0.0,0.0,69,0.00,,,0.09,meteohub,2013-06-04 00:24:00,
2013-06-03 20:29:00,73.2,63.3,29.88,West,261,0.0,0.0,71,0.00,,,0.09,meteohub,2013-06-04 00:29:00,
2013-06-03 20:34:00,73.2,63.3,29.88,West,261,0.0,0.0,71,0.00,,,0.09,meteohub,2013-06-04 00:34:00,
2013-06-03 20:39:00,73.0,62.6,29.88,West,261,0.0,0.0,70,0.00,,,0.09,meteohub,2013-06-04 00:39:00,
2013-06-03 20:44:00,72.9,63.0,29.88,West,261,0.0,0.0,71,0.00,,,0.09,meteohub,2013-06-04 00:44:00,
2013-06-03 20:49:00,72.5,63.0,29.88,West,261,0.0,0.0,72,0.00,,,0.09,meteohub,2013-06-04 00:49:00,
2013-06-03 20:54:00,72.1,62.2,29.88,West,261,0.0,0.0,71,0.00,,,0.09,meteohub,2013-06-04 00:54:00,
2013-06-03 20:59:00,72.0,62.8,29.88,West,261,0.0,0.0,73,0.00,,,0.09,meteohub,2013-06-04 00:59:00,
2013-06-03 21:04:00,71.8,62.6,29.88,West,261,0.0,0.0,73,0.00,,,0.09,meteohub,2013-06-04 01:04:00,
2013-06-03 21:09:00,71.4,63.1,29.89,West,261,0.0,0.0,75,0.00,,,0.09,meteohub,2013-06-04 01:09:00,
2013-06-03 21:14:00,71.1,63.1,29.89,West,261,0.0,0.0,76,0.00,,,0.09,meteohub,2013-06-04 01:14:00,
2013-06-03 21:19:00,70.9,63.0,29.89,West,261,0.0,0.0,76,0.00,,,0.09,meteohub,2013-06-04 01:19:00,
2013-06-03 21:24:00,70.5,62.6,29.89,West,261,0.0,0.0,76,0.00,,,0.09,meteohub,2013-06-04 01:24:00,
2013-06-03 21:29:00,70.2,62.6,29.90,West,261,0.0,0.0,77,0.00,,,0.09,meteohub,2013-06-04 01:29:00,
2013-06-03 21:34:00,70.0,62.4,29.90,West,261,0.0,0.0,77,0.00,,,0.09,meteohub,2013-06-04 01:34:00,
2013-06-03 21:39:00,69.6,62.4,29.90,West,261,0.0,0.0,78,0.00,,,0.09,meteohub,2013-06-04 01:39:00,
2013-06-03 21:44:00,69.4,63.0,29.91,West,261,0.0,0.0,80,0.00,,,0.09,meteohub,2013-06-04 01:44:00,
2013-06-03 21:49:00,69.1,62.6,29.91,West,261,0.0,0.0,80,0.00,,,0.09,meteohub,2013-06-04 01:49:00,
2013-06-03 21:54:00,68.7,62.6,29.91,West,261,0.0,0.0,81,0.00,,,0.09,meteohub,2013-06-04 01:54:00,
2013-06-03 21:59:00,68.5,62.4,29.92,West,261,0.0,0.0,81,0.00,,,0.09,meteohub,2013-06-04 01:59:00,
2013-06-03 22:04:00,68.4,62.6,29.92,West,261,0.0,0.0,82,0.00,,,0.09,meteohub,2013-06-04 02:04:00,
2013-06-03 22:09:00,68.2,62.8,29.93,West,261,0.0,0.0,83,0.00,,,0.09,meteohub,2013-06-04 02:09:00,
2013-06-03 22:14:00,67.8,62.4,29.93,West,261,0.0,0.0,83,0.00,,,0.09,meteohub,2013-06-04 02:14:00,
2013-06-03 22:19:00,67.8,62.8,29.93,West,261,0.0,0.0,84,0.00,,,0.09,meteohub,2013-06-04 02:19:00,
2013-06-03 22:24:00,67.6,62.6,29.93,West,261,0.0,0.0,84,0.00,,,0.09,meteohub,2013-06-04 02:24:00,
2013-06-03 22:29:00,67.6,61.5,29.94,North,0,1.0,0.0,81,0.00,,,0.09,meteohub,2013-06-04 02:29:00,
2013-06-03 22:34:00,68.0,61.2,29.94,North,355,0.0,3.0,79,0.00,,,0.09,meteohub,2013-06-04 02:34:00,
2013-06-03 22:40:00,68.4,60.4,29.94,WNW,290,2.0,3.0,76,0.00,,,0.09,meteohub,2013-06-04 02:40:00,
2013-06-03 22:45:00,68.7,59.7,29.94,North,0,0.0,3.0,73,0.00,,,0.09,meteohub,2013-06-04 02:45:00,
2013-06-03 22:50:00,69.1,60.1,29.94,WNW,302,0.0,4.0,73,0.00,,,0.09,meteohub,2013-06-04 02:50:00,
2013-06-03 22:55:00,69.3,59.9,29.94,NNW,328,0.0,4.0,72,0.00,,,0.09,meteohub,2013-06-04 02:55:00,
2013-06-03 23:00:00,69.4,58.5,29.94,NW,317,0.0,4.0,68,0.00,,,0.09,meteohub,2013-06-04 03:00:00,
2013-06-03 23:05:00,69.8,59.2,29.94,NW,305,2.0,6.0,69,0.00,,,0.09,meteohub,2013-06-04 03:05:00,
2013-06-03 23:10:00,70.0,58.5,29.94,WSW,245,1.0,6.0,67,0.00,,,0.09,meteohub,2013-06-04 03:10:00,
2013-06-03 23:15:00,70.2,58.3,29.95,NNW,327,0.0,4.0,66,0.00,,,0.09,meteohub,2013-06-04 03:15:00,
2013-06-03 23:20:00,70.2,58.3,29.95,NNW,339,3.0,4.0,66,0.00,,,0.09,meteohub,2013-06-04 03:20:00,
2013-06-03 23:25:00,70.2,58.3,29.95,NNW,327,2.0,4.0,66,0.00,,,0.09,meteohub,2013-06-04 03:25:00,
2013-06-03 23:30:00,70.2,58.6,29.95,WNW,290,1.0,4.0,67,0.00,,,0.09,meteohub,2013-06-04 03:30:00,
2013-06-03 23:35:00,70.0,58.5,29.95,NNW,338,0.0,4.0,67,0.00,,,0.09,meteohub,2013-06-04 03:35:00,
2013-06-03 23:40:00,69.6,58.1,29.96,West,278,0.0,4.0,67,0.00,,,0.09,meteohub,2013-06-04 03:40:00,
2013-06-03 23:45:00,69.4,57.9,29.96,WNW,286,1.0,5.0,67,0.00,,,0.09,meteohub,2013-06-04 03:45:00,
2013-06-03 23:50:00,69.1,57.7,29.96,NNW,327,4.0,5.0,67,0.00,,,0.09,meteohub,2013-06-04 03:50:00,
2013-06-03 23:55:00,68.9,57.6,29.96,NNW,335,0.0,6.0,67,0.00,,,0.09,meteohub,2013-06-04 03:55:00,